createdAt,value
2022-11-11T00:25:39.523Z,100.00
2022-11-11T00:30:07.283Z,100.00
2022-11-11T00:33:55.531Z,100.00
2022-11-11T00:36:54.889Z,100.00
2022-11-11T00:40:05.973Z,100.00
2022-11-11T00:43:22.000Z,100.00
2022-11-11T00:46:35.431Z,100.00
2022-11-11T00:50:00.538Z,100.00
2022-11-11T00:54:10.220Z,100.00
2022-11-11T00:56:49.262Z,100.00
2022-11-11T01:00:25.737Z,100.00
2022-11-11T01:03:29.447Z,100.00
2022-11-11T01:07:24.132Z,100.00
2022-11-11T01:10:40.374Z,100.00
2022-11-11T01:13:49.865Z,100.00
2022-11-11T01:18:01.810Z,100.00
2022-11-11T01:21:15.730Z,100.00
2022-11-11T01:28:42.811Z,100.00
2022-11-11T01:31:57.560Z,100.00
2022-11-11T01:35:48.743Z,100.00
2022-11-11T01:39:09.381Z,100.00
2022-11-11T01:42:54.970Z,100.00
2022-11-11T01:46:02.620Z,100.00
2022-11-11T01:49:42.713Z,100.00
2022-11-11T01:53:12.942Z,100.00
2022-11-11T02:00:24.301Z,100.00
2022-11-11T02:04:35.221Z,100.00
2022-11-11T02:08:14.048Z,100.00
2022-11-11T02:11:58.436Z,100.00
2022-11-11T02:18:38.113Z,100.00
2022-11-11T02:22:15.669Z,100.00
2022-11-11T02:29:52.655Z,100.00
2022-11-11T02:32:59.840Z,100.00
2022-11-11T02:36:01.595Z,100.00
2022-11-11T02:47:03.473Z,100.00
2022-11-11T02:49:59.534Z,100.00
2022-11-11T02:53:22.708Z,100.00
2022-11-11T03:03:54.073Z,100.00
2022-11-11T03:08:04.978Z,100.00
2022-11-11T03:11:45.659Z,100.00
2022-11-11T03:15:11.049Z,100.00
2022-11-11T03:18:30.408Z,100.00
2022-11-11T03:25:41.092Z,100.00
2022-11-11T03:28:37.262Z,100.00
2022-11-11T03:31:25.775Z,100.00
2022-11-11T03:34:20.250Z,100.00
2022-11-11T03:37:27.391Z,100.00
2022-11-11T03:40:13.897Z,100.00
2022-11-11T03:43:04.565Z,100.00
2022-11-11T03:45:56.555Z,100.00
2022-11-11T03:48:42.294Z,100.00
2022-11-11T03:51:30.627Z,100.00
2022-11-11T03:54:16.426Z,100.00
2022-11-11T03:57:20.566Z,100.00
2022-11-11T04:00:13.734Z,100.00
2022-11-11T04:03:28.397Z,100.00
2022-11-11T04:06:32.532Z,100.00
2022-11-11T04:09:37.485Z,100.00
2022-11-11T04:12:24.504Z,100.00
2022-11-11T04:15:28.658Z,100.00
2022-11-11T04:18:14.959Z,100.00
2022-11-11T04:21:19.899Z,100.00
2022-11-11T04:24:26.218Z,100.00
2022-11-11T04:27:14.836Z,100.00
2022-11-11T04:30:00.664Z,100.00
2022-11-11T04:32:47.611Z,100.00
2022-11-11T04:35:33.979Z,100.00
2022-11-11T04:38:38.123Z,100.00
2022-11-11T04:41:36.066Z,100.00
2022-11-11T04:44:48.838Z,100.00
2022-11-11T04:47:35.468Z,100.00
2022-11-11T04:50:23.251Z,100.00
2022-11-11T04:53:14.501Z,100.00
2022-11-11T04:56:19.422Z,100.00
2022-11-11T04:59:17.135Z,100.00
2022-11-11T05:02:21.689Z,100.00
2022-11-11T05:05:07.740Z,100.00
2022-11-11T05:08:13.160Z,100.00
2022-11-11T05:10:59.039Z,100.00
2022-11-11T05:14:03.767Z,100.00
2022-11-11T05:17:10.724Z,100.00
2022-11-11T05:20:15.421Z,100.00
2022-11-11T05:23:01.224Z,100.00
2022-11-11T05:25:47.276Z,100.00
2022-11-11T05:28:33.571Z,100.00
2022-11-11T05:31:19.401Z,100.00
2022-11-11T05:34:05.282Z,100.00
2022-11-11T05:36:51.431Z,100.00
2022-11-11T05:39:37.327Z,100.00
2022-11-11T05:42:23.095Z,100.00
2022-11-11T05:45:09.895Z,100.00
2022-11-11T05:47:56.160Z,100.00
2022-11-11T05:50:42.449Z,100.00
2022-11-11T05:53:28.828Z,100.00
2022-11-11T05:56:15.587Z,100.00
2022-11-11T05:59:01.592Z,100.00
2022-11-11T06:01:47.624Z,100.00
2022-11-11T06:04:35.570Z,100.00
2022-11-11T06:07:40.677Z,100.00
2022-11-11T06:10:32.749Z,100.00
2022-11-11T06:13:18.923Z,100.00
2022-11-11T06:16:06.043Z,100.00
2022-11-11T06:18:52.344Z,100.00
2022-11-11T06:21:57.118Z,100.00
2022-11-11T06:25:03.293Z,100.00
2022-11-11T06:27:49.503Z,100.00
2022-11-11T06:30:49.414Z,100.00
2022-11-11T06:33:37.690Z,100.00
2022-11-11T06:36:23.436Z,100.00
2022-11-11T06:39:09.268Z,100.00
2022-11-11T06:41:56.152Z,100.00
2022-11-11T06:44:42.127Z,100.00
2022-11-11T06:47:27.905Z,100.00
2022-11-11T06:50:14.269Z,100.00
2022-11-11T06:53:14.587Z,100.00
2022-11-11T06:56:00.700Z,100.00
2022-11-11T06:58:46.377Z,100.00
2022-11-11T07:01:34.571Z,100.00
2022-11-11T07:04:21.023Z,100.00
2022-11-11T07:07:06.895Z,100.00
2022-11-11T07:09:52.544Z,100.00
2022-11-11T07:12:41.489Z,100.00
2022-11-11T07:15:27.690Z,100.00
2022-11-11T07:18:13.881Z,100.00
2022-11-11T07:21:00.097Z,100.00
2022-11-11T07:23:45.851Z,100.00
2022-11-11T07:26:31.821Z,100.00
2022-11-11T07:29:17.643Z,100.00
2022-11-11T07:32:03.484Z,100.00
2022-11-11T07:34:50.782Z,100.00
2022-11-11T07:37:37.393Z,100.00
2022-11-11T07:40:23.571Z,100.00
2022-11-11T07:43:10.091Z,100.00
2022-11-11T07:45:56.025Z,100.00
2022-11-11T07:48:42.488Z,100.00
2022-11-11T07:51:29.010Z,100.00
2022-11-11T07:54:15.392Z,100.00
2022-11-11T07:57:01.823Z,100.00
2022-11-11T07:59:47.953Z,100.00
2022-11-11T08:02:33.893Z,100.00
2022-11-11T08:05:19.881Z,100.00
2022-11-11T08:08:07.700Z,100.00
2022-11-11T08:10:55.055Z,100.00
2022-11-11T08:13:42.042Z,100.00
2022-11-11T08:16:27.987Z,100.00
2022-11-11T08:19:14.275Z,100.00
2022-11-11T08:22:00.781Z,100.00
2022-11-11T08:25:04.312Z,100.00
2022-11-11T08:28:00.200Z,95.37
2022-11-11T08:30:46.109Z,88.28
2022-11-11T08:33:44.348Z,88.77
2022-11-11T08:36:30.656Z,87.74
2022-11-11T08:39:17.015Z,86.50
2022-11-11T08:42:03.106Z,88.99
2022-11-11T08:44:49.423Z,90.36
2022-11-11T08:47:36.621Z,88.94
2022-11-11T08:50:22.524Z,87.07
2022-11-11T08:53:08.940Z,85.18
2022-11-11T08:55:55.168Z,82.31
2022-11-11T08:58:41.355Z,80.45
2022-11-11T09:01:27.449Z,80.82
2022-11-11T09:07:19.488Z,82.28
2022-11-11T09:10:05.537Z,83.23
2022-11-11T09:12:56.715Z,84.48
2022-11-11T09:15:59.832Z,89.56
2022-11-11T09:18:46.701Z,86.00
2022-11-11T09:21:32.652Z,84.76
2022-11-11T09:24:18.355Z,85.91
2022-11-11T09:27:04.216Z,91.79
2022-11-11T09:29:49.976Z,91.83
2022-11-11T09:32:36.826Z,88.65
2022-11-11T09:35:22.741Z,83.72
2022-11-11T09:38:09.201Z,81.26
2022-11-11T09:41:04.848Z,85.78
2022-11-11T09:43:59.857Z,89.68
2022-11-11T09:47:06.109Z,84.61
2022-11-11T09:50:04.052Z,84.64
2022-11-11T09:52:55.689Z,90.24
2022-11-11T09:55:56.988Z,84.09
2022-11-11T09:58:52.678Z,81.48
2022-11-11T10:01:43.147Z,86.97
2022-11-11T10:04:48.145Z,90.03
2022-11-11T10:07:46.094Z,98.02
2022-11-11T10:10:51.498Z,97.52
2022-11-11T10:13:39.028Z,95.81
2022-11-11T10:17:02.163Z,95.54
2022-11-11T10:20:03.173Z,99.45
2022-11-11T10:23:03.388Z,93.86
2022-11-11T10:25:55.255Z,96.48
2022-11-11T10:28:44.650Z,97.07
2022-11-11T10:31:30.669Z,99.49
2022-11-11T10:34:19.865Z,91.16
2022-11-11T10:37:17.192Z,94.25
2022-11-11T10:40:18.558Z,93.42
2022-11-11T10:43:04.605Z,98.03
2022-11-11T10:46:03.404Z,96.21
2022-11-11T10:48:59.209Z,100.00
2022-11-11T10:51:55.615Z,99.68
2022-11-11T10:54:52.126Z,100.00
2022-11-11T10:58:04.454Z,100.00
2022-11-11T11:00:53.890Z,100.00
2022-11-11T11:03:45.738Z,100.00
2022-11-11T11:06:36.132Z,100.00
2022-11-11T11:09:30.697Z,100.00
2022-11-11T11:12:28.553Z,96.78
2022-11-11T11:15:40.064Z,98.15
2022-11-11T11:18:27.250Z,96.58
2022-11-11T11:21:13.557Z,97.78
2022-11-11T11:23:59.533Z,96.85
2022-11-11T11:26:47.923Z,95.38
2022-11-11T11:29:42.977Z,96.51
2022-11-11T11:32:31.311Z,96.45
2022-11-11T11:35:33.490Z,95.88
2022-11-11T11:38:19.658Z,98.08
2022-11-11T11:41:05.480Z,93.47
2022-11-11T11:43:51.352Z,91.65
2022-11-11T11:46:42.936Z,91.83
2022-11-11T11:49:47.844Z,92.16
2022-11-11T11:52:45.787Z,89.37
2022-11-11T11:55:42.375Z,89.49
2022-11-11T11:58:53.388Z,90.97
2022-11-11T12:01:52.433Z,89.92
2022-11-11T12:04:49.622Z,92.04
2022-11-11T12:07:56.690Z,96.55
2022-11-11T12:11:03.608Z,93.00
2022-11-11T12:14:07.172Z,93.85
2022-11-11T12:17:19.194Z,95.67
2022-11-11T12:20:25.402Z,95.10
2022-11-11T12:23:29.928Z,100.00
2022-11-11T12:26:25.876Z,97.85
2022-11-11T12:29:17.962Z,94.15
2022-11-11T12:32:18.732Z,95.55
2022-11-11T12:35:10.340Z,93.62
2022-11-11T12:38:27.033Z,95.72
2022-11-11T12:41:51.796Z,93.65
2022-11-11T12:44:46.676Z,93.67
2022-11-11T12:47:47.244Z,97.13
2022-11-11T12:50:43.815Z,96.05
2022-11-11T12:53:43.418Z,95.96
2022-11-11T12:56:42.109Z,96.51
2022-11-11T12:59:37.990Z,96.33
2022-11-11T13:02:49.357Z,96.79
2022-11-11T13:05:49.193Z,100.00
2022-11-11T13:08:41.130Z,100.00
2022-11-11T13:11:39.907Z,100.00
2022-11-11T13:14:47.622Z,100.00
2022-11-11T13:17:33.804Z,100.00
2022-11-11T13:21:07.238Z,100.00
2022-11-11T13:23:53.830Z,100.00
2022-11-11T13:26:48.057Z,100.00
2022-11-11T13:29:40.195Z,100.00
2022-11-11T13:32:34.466Z,100.00
2022-11-11T13:35:28.932Z,100.00
2022-11-11T13:38:28.720Z,100.00
2022-11-11T13:41:23.142Z,100.00
2022-11-11T13:44:10.224Z,100.00
2022-11-11T13:47:07.431Z,100.00
2022-11-11T13:50:21.383Z,100.00
2022-11-11T13:53:25.538Z,100.00
2022-11-11T13:56:13.044Z,100.00
2022-11-11T13:59:00.206Z,100.00
2022-11-11T14:01:46.145Z,100.00
2022-11-11T14:05:09.025Z,100.00
2022-11-11T14:07:57.599Z,100.00
2022-11-11T14:10:56.347Z,100.00
2022-11-11T14:13:42.773Z,100.00
2022-11-11T14:16:34.866Z,100.00
2022-11-11T14:19:20.954Z,100.00
2022-11-11T14:22:33.124Z,100.00
2022-11-11T14:25:21.237Z,100.00
2022-11-11T14:28:50.983Z,100.00
2022-11-11T14:31:56.325Z,100.00
2022-11-11T14:34:52.331Z,100.00
2022-11-11T14:37:46.452Z,100.00
2022-11-11T14:40:36.226Z,100.00
2022-11-11T14:43:38.277Z,100.00
2022-11-11T14:46:24.520Z,100.00
2022-11-11T14:49:10.343Z,100.00
2022-11-11T14:51:59.448Z,100.00
2022-11-11T14:55:02.867Z,100.00
2022-11-11T14:57:54.555Z,100.00
2022-11-11T15:00:56.916Z,100.00
2022-11-11T15:03:45.057Z,100.00
2022-11-11T15:06:42.519Z,100.00
2022-11-11T15:09:49.703Z,100.00
2022-11-11T15:12:45.441Z,100.00
2022-11-11T15:15:41.617Z,100.00
2022-11-11T15:18:42.294Z,100.00
2022-11-11T15:21:42.837Z,100.00
2022-11-11T15:25:01.536Z,100.00
2022-11-11T15:28:04.243Z,100.00
2022-11-11T15:31:01.596Z,100.00
2022-11-11T15:34:02.465Z,100.00
2022-11-11T15:37:10.907Z,100.00
2022-11-11T15:39:58.380Z,100.00
2022-11-11T15:42:48.243Z,100.00
2022-11-11T15:45:36.097Z,100.00
2022-11-11T15:48:33.782Z,100.00
2022-11-11T15:51:22.230Z,100.00
2022-11-11T15:54:20.034Z,100.00
2022-11-11T15:57:24.580Z,100.00
2022-11-11T16:00:32.474Z,100.00
2022-11-11T16:03:27.121Z,100.00
2022-11-11T16:06:15.855Z,100.00
2022-11-11T16:09:03.405Z,100.00
2022-11-11T16:11:52.332Z,100.00
2022-11-11T16:14:44.778Z,100.00
2022-11-11T16:17:41.766Z,100.00
2022-11-11T16:20:34.567Z,100.00
2022-11-11T16:23:21.905Z,100.00
2022-11-11T16:26:09.055Z,100.00
2022-11-11T16:28:58.148Z,100.00
2022-11-11T16:31:46.062Z,100.00
2022-11-11T16:34:34.017Z,100.00
2022-11-11T16:37:21.766Z,100.00
2022-11-11T16:40:28.960Z,100.00
2022-11-11T16:43:19.136Z,100.00
2022-11-11T16:46:15.612Z,100.00
2022-11-11T16:49:24.814Z,100.00
2022-11-11T16:52:21.359Z,100.00
2022-11-11T16:55:11.492Z,100.00
2022-11-11T16:58:16.741Z,100.00
2022-11-11T17:01:04.315Z,100.00
2022-11-11T17:03:55.982Z,100.00
2022-11-11T17:07:00.709Z,100.00
2022-11-11T17:09:46.946Z,100.00
2022-11-11T17:12:33.389Z,100.00
2022-11-11T17:15:21.808Z,100.00
2022-11-11T17:18:09.284Z,100.00
2022-11-11T17:20:56.019Z,100.00
2022-11-11T17:23:41.913Z,100.00
2022-11-11T17:26:28.289Z,100.00
2022-11-11T17:29:15.327Z,100.00
2022-11-11T17:32:01.314Z,100.00
2022-11-11T17:34:47.406Z,100.00
2022-11-11T17:37:35.744Z,100.00
2022-11-11T17:40:21.801Z,100.00
2022-11-11T17:43:07.649Z,100.00
2022-11-11T17:45:53.537Z,100.00
2022-11-11T17:48:40.210Z,100.00
2022-11-11T17:51:26.488Z,100.00
2022-11-11T17:54:12.510Z,100.00
2022-11-11T17:56:59.531Z,100.00
2022-11-11T17:59:45.664Z,100.00
2022-11-11T18:02:32.048Z,100.00
2022-11-11T18:05:18.539Z,100.00
2022-11-11T18:08:06.021Z,100.00
2022-11-11T18:10:59.077Z,100.00
2022-11-11T18:13:44.794Z,100.00
2022-11-11T18:16:30.930Z,100.00
2022-11-11T18:19:17.657Z,100.00
2022-11-11T18:22:03.802Z,100.00
2022-11-11T18:24:49.612Z,100.00
2022-11-11T18:27:35.900Z,100.00
2022-11-11T18:30:22.769Z,100.00
2022-11-11T18:33:09.450Z,100.00
2022-11-11T18:35:55.928Z,100.00
2022-11-11T18:38:43.750Z,100.00
2022-11-11T18:41:30.308Z,100.00
2022-11-11T18:44:16.378Z,100.00
2022-11-11T18:47:02.224Z,100.00
2022-11-11T18:49:47.915Z,100.00
2022-11-11T18:52:33.650Z,100.00
2022-11-11T18:55:19.386Z,100.00
2022-11-11T18:58:05.060Z,100.00
2022-11-11T19:00:50.873Z,100.00
2022-11-11T19:03:37.543Z,100.00
2022-11-11T19:06:25.427Z,100.00
2022-11-11T19:09:13.064Z,100.00
2022-11-11T19:11:59.282Z,100.00
2022-11-11T19:14:45.811Z,100.00
2022-11-11T19:17:31.644Z,100.00
2022-11-11T19:20:17.682Z,100.00
2022-11-11T19:23:03.493Z,100.00
2022-11-11T19:25:49.585Z,100.00
2022-11-11T19:28:37.077Z,100.00
2022-11-11T19:31:25.587Z,100.00
2022-11-11T19:34:11.935Z,100.00
2022-11-11T19:36:58.469Z,100.00
2022-11-11T19:39:44.492Z,100.00
2022-11-11T19:42:30.478Z,100.00
2022-11-11T19:45:16.961Z,100.00
2022-11-11T19:48:02.759Z,100.00
2022-11-11T19:50:48.522Z,100.00
2022-11-11T19:53:34.977Z,100.00
2022-11-11T19:56:21.254Z,100.00
2022-11-11T19:59:07.238Z,100.00
2022-11-11T20:01:52.989Z,100.00
2022-11-11T20:04:38.853Z,100.00
2022-11-11T20:07:24.594Z,100.00
2022-11-11T20:10:10.627Z,100.00
2022-11-11T20:12:56.437Z,100.00
2022-11-11T20:15:42.065Z,100.00
2022-11-11T20:18:29.347Z,100.00
2022-11-11T20:21:15.473Z,100.00
2022-11-11T20:24:01.210Z,100.00
2022-11-11T20:26:51.877Z,100.00
2022-11-11T20:29:38.555Z,100.00
2022-11-11T20:32:24.278Z,100.00
2022-11-11T20:35:10.169Z,100.00
2022-11-11T20:37:56.308Z,100.00
2022-11-11T20:40:42.029Z,100.00
2022-11-11T20:43:30.264Z,100.00
2022-11-11T20:46:19.000Z,100.00
2022-11-11T20:49:05.131Z,100.00
2022-11-11T20:51:51.425Z,100.00
2022-11-11T20:54:38.420Z,100.00
2022-11-11T20:57:24.537Z,100.00
2022-11-11T21:00:11.591Z,100.00
2022-11-11T21:02:57.686Z,100.00
2022-11-11T21:05:43.469Z,100.00
2022-11-11T21:08:32.773Z,100.00
2022-11-11T21:11:21.777Z,100.00
2022-11-11T21:14:08.764Z,100.00
2022-11-11T21:16:54.760Z,100.00
2022-11-11T21:19:40.466Z,100.00
2022-11-11T21:22:26.406Z,100.00
2022-11-11T21:25:12.429Z,100.00
2022-11-11T21:28:00.085Z,100.00
2022-11-11T21:30:46.355Z,100.00
2022-11-11T21:33:32.106Z,100.00
2022-11-11T21:36:19.470Z,100.00
2022-11-11T21:39:07.430Z,100.00
2022-11-11T21:41:53.308Z,100.00
2022-11-11T21:44:39.134Z,100.00
2022-11-11T21:47:24.948Z,100.00
2022-11-11T21:50:10.836Z,100.00
2022-11-11T21:52:57.010Z,100.00
2022-11-11T21:55:42.767Z,100.00
2022-11-11T21:58:29.456Z,100.00
2022-11-11T22:01:20.484Z,100.00
2022-11-11T22:04:11.872Z,100.00
2022-11-11T22:06:58.147Z,100.00
2022-11-11T22:09:44.331Z,100.00
2022-11-11T22:12:35.981Z,100.00
2022-11-11T22:15:22.286Z,100.00
2022-11-11T22:18:08.613Z,100.00
2022-11-11T22:20:54.824Z,100.00
2022-11-11T22:23:40.596Z,100.00
2022-11-11T22:26:30.578Z,100.00
2022-11-11T22:29:16.692Z,100.00
2022-11-11T22:32:02.497Z,100.00
2022-11-11T22:34:48.477Z,100.00
2022-11-11T22:37:34.240Z,100.00
2022-11-11T22:40:20.138Z,100.00
2022-11-11T22:43:06.169Z,100.00
2022-11-11T22:45:57.194Z,100.00
2022-11-11T22:48:49.725Z,100.00
2022-11-11T22:51:35.487Z,100.00
2022-11-11T22:54:21.777Z,100.00
2022-11-11T22:57:09.171Z,100.00
2022-11-11T22:59:55.252Z,100.00
2022-11-11T23:02:41.052Z,100.00
2022-11-11T23:05:27.174Z,100.00
2022-11-11T23:08:13.544Z,100.00
2022-11-11T23:11:28.767Z,100.00
2022-11-11T23:14:16.007Z,100.00
2022-11-11T23:17:02.151Z,100.00
2022-11-11T23:19:47.943Z,100.00
2022-11-11T23:22:33.907Z,100.00
2022-11-11T23:25:27.356Z,100.00
2022-11-11T23:28:13.231Z,100.00
2022-11-11T23:31:09.291Z,100.00
2022-11-11T23:33:58.412Z,100.00
2022-11-11T23:36:44.484Z,100.00
2022-11-11T23:39:30.317Z,100.00
2022-11-11T23:42:16.171Z,100.00
2022-11-11T23:45:02.175Z,100.00
2022-11-11T23:47:48.366Z,100.00
2022-11-11T23:50:34.382Z,100.00
2022-11-11T23:53:20.524Z,100.00
2022-11-11T23:56:06.975Z,100.00
2022-11-11T23:58:53.094Z,100.00
